»·PEaware :: N324GM KSMX-KBFL

N324GM :: KSMX-KBFL

FLIGHT INFORMATION

Flight Status: Arrived
Operator: Privately registered:
United States
More flights under this callsign
Pilot: Gavin M. (15591)
Aircraft: PIPER PA-31/31P NAVAJO CHIEFTAIN
(PA31)
More flights by this aircraft type
Origin: KSMX Santa Maria Pub/Capt Hancock
United States
Destination: KBFL Meadows
United States
More flights between these airports :: More routes between these airports
Route: +DIRECT FF
File this flight plan on PilotEdge
Remarks: CAT 5
Altitude:
(Current/Filed)
6,500ft
Speed:
(Current/Filed)
115kts
Departed: 01-Jun-17 06:35 PM
Arrived: 01-Jun-17 07:04 PM
Distance/Time
Traveled:
76nm/0:29
Distance/Time
To Go:
Arrived

Flight Plot

Page will automatically refresh every two minutes.

Flight plan parsing failed; only flown route is shown


Map Options




Map Legend


Flown Route
Filed Route
Departure Airport
Arrival Airport
Navaid (VOR, NDB)
Fix

Horizontal Profiles

Position Reports

Time Latitude Longitude Heading Altitude Ground
Speed
01-Jun-17 18:13 34.896394 -120.445418 314 265ft 0kts
01-Jun-17 18:14 34.896394 -120.445418 314 265ft 0kts
01-Jun-17 18:15 34.896394 -120.445418 314 265ft 0kts
01-Jun-17 18:16 34.896394 -120.445418 314 265ft 0kts
01-Jun-17 18:17 34.896394 -120.445418 314 265ft 0kts
01-Jun-17 18:18 34.896394 -120.445418 314 265ft 0kts
01-Jun-17 18:19 34.895039 -120.444681 141 265ft 8kts
01-Jun-17 18:20 34.893414 -120.444940 179 265ft 0kts
01-Jun-17 18:21 34.893414 -120.444940 179 265ft 0kts
01-Jun-17 18:22 34.893414 -120.444940 179 265ft 0kts
01-Jun-17 18:23 34.893414 -120.444940 179 265ft 0kts
01-Jun-17 18:24 34.893414 -120.444940 179 265ft 0kts
01-Jun-17 18:25 34.893414 -120.444940 179 265ft 0kts
01-Jun-17 18:26 34.893405 -120.444940 179 265ft 0kts
01-Jun-17 18:27 34.893405 -120.444940 179 265ft 0kts
01-Jun-17 18:32 34.895687 -120.444956 314 265ft 0kts
01-Jun-17 18:33 34.895687 -120.444956 314 265ft 0kts
01-Jun-17 18:34 34.895687 -120.444956 314 265ft 0kts
01-Jun-17 18:35 34.893500 -120.444958 182 265ft 13kts
01-Jun-17 18:36 34.893222 -120.444969 183 265ft 13kts
01-Jun-17 18:37 34.908954 -120.462116 315 1073ft 128kts
01-Jun-17 18:38 34.927790 -120.421950 72 816ft 161kts
01-Jun-17 18:39 34.938204 -120.386463 59 889ft 178kts
01-Jun-17 18:40 34.950284 -120.332397 84 3188ft 173kts
01-Jun-17 18:41 34.961772 -120.282193 68 3958ft 195kts
01-Jun-17 18:42 34.983909 -120.221495 64 4948ft 201kts
01-Jun-17 18:43 35.011841 -120.149927 64 6027ft 203kts
01-Jun-17 18:44 35.034700 -120.091649 64 6909ft 199kts
01-Jun-17 18:45 35.054603 -120.040820 64 7522ft 206kts
01-Jun-17 18:46 35.067531 -120.007086 63 7489ft 220kts
01-Jun-17 18:47 35.089637 -119.950744 62 7550ft 223kts
01-Jun-17 18:48 35.114444 -119.887508 62 7571ft 225kts
01-Jun-17 18:49 35.140630 -119.820242 62 7568ft 225kts
01-Jun-17 18:50 35.166922 -119.752540 62 7581ft 226kts
01-Jun-17 18:51 35.193589 -119.683745 62 7587ft 226kts
01-Jun-17 18:52 35.218533 -119.619229 62 7590ft 226kts
01-Jun-17 18:53 35.245124 -119.550610 62 7592ft 226kts
01-Jun-17 18:54 35.271506 -119.482108 62 7594ft 226kts
01-Jun-17 18:55 35.297955 -119.413300 62 7596ft 226kts
01-Jun-17 18:56 35.323095 -119.347757 62 7597ft 226kts
01-Jun-17 18:57 35.348464 -119.281455 62 7327ft 205kts
01-Jun-17 18:58 35.370789 -119.223048 62 6126ft 187kts
01-Jun-17 18:59 35.390683 -119.170881 62 4725ft 147kts
01-Jun-17 19:00 35.403748 -119.136755 63 3387ft 134kts
01-Jun-17 19:01 35.420660 -119.097980 61 1790ft 131kts
01-Jun-17 19:02 35.436869 -119.062709 59 1526ft 114kts
01-Jun-17 19:03 35.432358 -119.034499 144 1208ft 114kts
01-Jun-17 19:04 35.413350 -119.028145 298 875ft 96kts
01-Jun-17 19:05 35.429508 -119.050825 308 621ft 87kts
01-Jun-17 19:06 35.438229 -119.059403 96 510ft 0kts
01-Jun-17 19:07 35.437304 -119.058160 136 510ft 20kts
01-Jun-17 19:08 35.432688 -119.052561 134 510ft 20kts
01-Jun-17 19:09 35.433374 -119.051669 207 510ft 0kts
01-Jun-17 19:10 35.433374 -119.051669 207 510ft 0kts
01-Jun-17 19:11 35.433374 -119.051669 207 510ft 0kts
01-Jun-17 19:12 35.433374 -119.051669 207 510ft 0kts
01-Jun-17 19:13 35.433374 -119.051669 207 510ft 0kts
01-Jun-17 19:14 35.433374 -119.051669 207 510ft 0kts

Navigation Log

Ident Type
Flight plan parsing failed, navigation log unavailable